Terminal Aerodrome Forecast
Issued by NWS

Home | Current Version | Previous Version | Text Only | Print | Product List | Glossary Off
Versions: 1 2 3 4 5 6 7 8 9 10 11 12 13 14 15

351
FTUS43 KABR 022015 AAA
TAFPIR
TAF AMD
KPIR 022015Z 0220/0318 01016G25KT P6SM -SHRA BKN060 OVC080
     FM022045 32011KT P6SM -SHRA BKN090
     FM022300 30007KT P6SM BKN090
     FM031500 30009KT P6SM FEW250=

USA.gov is the U.S. government's official web portal to all federal, state and local government web resources and services.